createdAt,value
2018-06-02T00:00:37.512Z,0.00
2018-06-02T00:01:37.450Z,0.00
2018-06-02T00:02:37.393Z,0.00
2018-06-02T00:03:37.346Z,0.00
2018-06-02T00:04:37.282Z,0.00
2018-06-02T00:05:37.226Z,0.00
2018-06-02T00:06:37.171Z,0.00
2018-06-02T00:07:37.108Z,0.00
2018-06-02T00:08:37.054Z,0.00
2018-06-02T00:09:36.992Z,0.00
2018-06-02T00:10:36.939Z,0.00
2018-06-02T00:11:36.880Z,0.00
2018-06-02T00:12:36.828Z,0.00
2018-06-02T00:13:36.765Z,0.00
2018-06-02T00:14:36.706Z,0.00
2018-06-02T00:15:36.655Z,0.00
2018-06-02T00:16:36.589Z,0.00
2018-06-02T00:17:36.536Z,0.00
2018-06-02T00:18:36.483Z,0.00
2018-06-02T00:19:36.420Z,0.00
2018-06-02T00:20:36.364Z,0.00
2018-06-02T00:21:36.305Z,0.00
2018-06-02T00:22:36.247Z,0.00
2018-06-02T00:23:36.191Z,0.00
2018-06-02T00:24:36.144Z,0.00
2018-06-02T00:25:36.075Z,0.00
2018-06-02T00:26:36.019Z,0.00
2018-06-02T00:27:35.962Z,0.00
2018-06-02T00:28:35.905Z,0.00
2018-06-02T00:29:35.847Z,0.00
2018-06-02T00:30:35.783Z,0.00
2018-06-02T00:31:35.734Z,0.00
2018-06-02T00:32:35.672Z,0.00
2018-06-02T00:33:35.615Z,0.00
2018-06-02T00:34:35.558Z,0.00
2018-06-02T00:35:35.500Z,0.00
2018-06-02T00:36:35.445Z,0.00
2018-06-02T00:37:35.389Z,0.00
2018-06-02T00:38:35.331Z,0.00
2018-06-02T00:39:35.274Z,0.00
2018-06-02T00:40:35.216Z,0.00
2018-06-02T00:41:35.160Z,0.00
2018-06-02T00:42:35.100Z,0.00
2018-06-02T00:43:35.043Z,0.00
2018-06-02T00:44:34.987Z,0.00
2018-06-02T00:45:34.925Z,0.00
2018-06-02T00:46:34.874Z,0.00
2018-06-02T00:47:34.811Z,0.00
2018-06-02T00:48:34.799Z,0.00
2018-06-02T00:49:34.704Z,0.00
2018-06-02T00:50:34.638Z,0.00
2018-06-02T00:51:34.581Z,0.00
2018-06-02T00:52:34.525Z,0.00
2018-06-02T00:53:34.465Z,0.00
2018-06-02T00:54:34.410Z,0.00
2018-06-02T00:55:34.357Z,0.00
2018-06-02T00:56:34.298Z,0.00
2018-06-02T00:57:34.237Z,0.00
2018-06-02T00:58:34.182Z,0.00
2018-06-02T00:59:34.122Z,0.00
2018-06-02T01:00:34.063Z,0.00
2018-06-02T01:01:34.007Z,0.00
2018-06-02T01:02:33.950Z,0.00
2018-06-02T01:03:33.895Z,0.00
2018-06-02T01:04:33.837Z,0.00
2018-06-02T01:05:33.780Z,0.00
2018-06-02T01:06:33.720Z,0.00
2018-06-02T01:07:33.663Z,0.00
2018-06-02T01:08:33.607Z,0.00
2018-06-02T01:09:33.547Z,0.00
2018-06-02T01:10:33.491Z,0.00
2018-06-02T01:11:33.431Z,0.00
2018-06-02T01:12:33.376Z,0.00
2018-06-02T01:13:33.316Z,0.00
2018-06-02T01:14:33.262Z,0.00
2018-06-02T01:15:33.203Z,0.00
2018-06-02T01:16:33.146Z,0.00
2018-06-02T01:17:33.088Z,0.00
2018-06-02T01:18:33.031Z,0.00
2018-06-02T01:19:32.971Z,0.00
2018-06-02T01:20:32.913Z,0.00
2018-06-02T01:21:32.859Z,0.00
2018-06-02T01:22:32.799Z,0.00
2018-06-02T01:23:32.744Z,0.00
2018-06-02T01:24:32.683Z,0.00
2018-06-02T01:25:32.627Z,0.00
2018-06-02T01:26:32.570Z,0.00
2018-06-02T01:27:32.515Z,0.00
2018-06-02T01:28:32.456Z,0.00
2018-06-02T01:29:32.399Z,0.00
2018-06-02T01:30:32.342Z,0.00
2018-06-02T01:31:32.286Z,0.00
2018-06-02T01:32:32.225Z,0.00
2018-06-02T01:33:32.174Z,0.00
2018-06-02T01:34:32.111Z,0.00
2018-06-02T01:35:32.052Z,0.00
2018-06-02T01:36:31.996Z,0.00
2018-06-02T01:37:31.938Z,0.00
2018-06-02T01:38:31.882Z,0.00
2018-06-02T01:39:31.827Z,0.00
2018-06-02T01:40:31.768Z,0.00
2018-06-02T01:41:31.714Z,0.00
2018-06-02T01:42:31.658Z,0.00
2018-06-02T01:43:31.591Z,0.00
2018-06-02T01:44:31.535Z,0.00
2018-06-02T01:45:31.480Z,0.00
2018-06-02T01:46:31.420Z,0.00
2018-06-02T01:47:31.371Z,0.00
2018-06-02T01:48:31.307Z,0.00
2018-06-02T01:49:31.254Z,0.00
2018-06-02T01:50:31.192Z,0.00
2018-06-02T01:51:31.133Z,0.00
2018-06-02T01:52:31.077Z,0.00
2018-06-02T01:53:31.022Z,0.00
2018-06-02T01:54:30.965Z,0.00
2018-06-02T01:55:30.904Z,0.00
2018-06-02T01:56:30.849Z,0.00
2018-06-02T01:57:30.792Z,0.00
2018-06-02T01:58:30.731Z,0.00
2018-06-02T01:59:30.677Z,0.00
2018-06-02T02:00:30.622Z,0.00
2018-06-02T02:01:30.561Z,0.00
2018-06-02T02:02:30.505Z,0.00
2018-06-02T02:03:30.445Z,0.00
2018-06-02T02:04:30.389Z,0.00
2018-06-02T02:05:30.329Z,0.00
2018-06-02T02:06:30.277Z,0.00
2018-06-02T02:07:30.215Z,0.00
2018-06-02T02:08:30.158Z,0.00
2018-06-02T02:09:30.101Z,0.00
2018-06-02T02:10:30.046Z,0.00
2018-06-02T02:11:29.987Z,0.00
2018-06-02T02:12:29.931Z,0.00
2018-06-02T02:13:29.870Z,0.00
2018-06-02T02:14:29.816Z,0.00
2018-06-02T02:15:29.755Z,0.00
2018-06-02T02:16:29.699Z,0.00
2018-06-02T02:17:29.639Z,0.00
2018-06-02T02:18:29.582Z,0.00
2018-06-02T02:19:29.525Z,0.00
2018-06-02T02:20:29.473Z,0.00
2018-06-02T02:21:29.409Z,0.00
2018-06-02T02:22:29.358Z,0.00
2018-06-02T02:23:29.295Z,0.00
2018-06-02T02:24:29.236Z,0.00
2018-06-02T02:25:29.183Z,0.00
2018-06-02T02:26:29.125Z,0.00
2018-06-02T02:27:29.064Z,0.00
2018-06-02T02:28:29.050Z,0.00
2018-06-02T02:29:28.953Z,0.00
2018-06-02T02:30:28.893Z,0.00
2018-06-02T02:31:28.840Z,0.00
2018-06-02T02:32:28.777Z,0.00
2018-06-02T02:33:28.721Z,0.00
2018-06-02T02:34:28.662Z,0.00
2018-06-02T02:35:28.603Z,0.00
2018-06-02T02:36:28.544Z,0.00
2018-06-02T02:37:28.487Z,0.00
2018-06-02T02:38:28.429Z,0.00
2018-06-02T02:39:28.375Z,0.00
2018-06-02T02:40:28.315Z,0.00
2018-06-02T02:41:28.258Z,0.00
2018-06-02T02:42:28.199Z,5.63
2018-06-02T02:43:28.142Z,5.63
2018-06-02T02:44:28.091Z,5.63
2018-06-02T02:45:28.028Z,5.63
2018-06-02T02:46:27.969Z,5.63
2018-06-02T02:47:27.912Z,5.63
2018-06-02T02:48:27.853Z,5.63
2018-06-02T02:49:27.795Z,5.63
2018-06-02T02:50:27.736Z,5.63
2018-06-02T02:51:27.684Z,11.25
2018-06-02T02:52:27.627Z,11.25
2018-06-02T02:53:27.571Z,11.25
2018-06-02T02:54:27.509Z,11.25
2018-06-02T02:55:27.449Z,11.25
2018-06-02T02:56:27.391Z,11.25
2018-06-02T02:57:27.336Z,16.88
2018-06-02T02:58:27.279Z,16.88
2018-06-02T02:59:27.219Z,16.88
2018-06-02T03:00:27.161Z,16.88
2018-06-02T03:01:27.104Z,16.88
2018-06-02T03:02:27.046Z,16.88
2018-06-02T03:03:26.992Z,16.88
2018-06-02T03:04:26.929Z,16.88
2018-06-02T03:05:26.881Z,16.88
2018-06-02T03:06:26.818Z,22.50
2018-06-02T03:07:26.759Z,22.50
2018-06-02T03:08:26.706Z,22.50
2018-06-02T03:09:26.644Z,22.50
2018-06-02T03:10:26.586Z,22.50
2018-06-02T03:11:26.531Z,28.13
2018-06-02T03:12:26.470Z,28.13
2018-06-02T03:13:26.408Z,28.13
2018-06-02T03:14:26.358Z,28.13
2018-06-02T03:15:26.303Z,33.75
2018-06-02T03:16:26.243Z,33.75
2018-06-02T03:17:26.186Z,33.75
2018-06-02T03:18:26.126Z,33.75
2018-06-02T03:19:26.068Z,33.75
2018-06-02T03:20:26.013Z,39.38
2018-06-02T03:21:25.952Z,39.38
2018-06-02T03:22:25.895Z,39.38
2018-06-02T03:23:25.837Z,39.38
2018-06-02T03:24:25.780Z,45.00
2018-06-02T03:25:25.721Z,45.00
2018-06-02T03:26:25.662Z,45.00
2018-06-02T03:27:25.605Z,45.00
2018-06-02T03:28:25.547Z,50.63
2018-06-02T03:29:25.515Z,50.63
2018-06-02T03:30:25.434Z,56.25
2018-06-02T03:31:25.379Z,56.25
2018-06-02T03:32:25.317Z,56.25
2018-06-02T03:33:25.262Z,61.88
2018-06-02T03:34:25.204Z,61.88
2018-06-02T03:35:25.145Z,67.50
2018-06-02T03:36:25.088Z,67.50
2018-06-02T03:37:25.031Z,67.50
2018-06-02T03:38:24.971Z,73.13
2018-06-02T03:39:24.912Z,73.13
2018-06-02T03:40:24.853Z,73.13
2018-06-02T03:41:24.797Z,78.75
2018-06-02T03:42:24.742Z,78.75
2018-06-02T03:43:24.684Z,78.75
2018-06-02T03:44:24.626Z,84.38
2018-06-02T03:45:24.566Z,84.38
2018-06-02T03:46:24.517Z,84.38
2018-06-02T03:47:24.452Z,90.00
2018-06-02T03:48:24.394Z,90.00
2018-06-02T03:49:24.341Z,90.00
2018-06-02T03:50:24.289Z,95.63
2018-06-02T03:51:24.219Z,95.63
2018-06-02T03:52:24.165Z,101.25
2018-06-02T03:53:24.103Z,101.25
2018-06-02T03:54:24.047Z,106.88
2018-06-02T03:55:23.992Z,106.88
2018-06-02T03:56:23.932Z,112.50
2018-06-02T03:57:23.876Z,112.50
2018-06-02T03:58:23.817Z,112.50
2018-06-02T03:59:23.759Z,112.50
2018-06-02T04:00:23.703Z,118.13
2018-06-02T04:01:23.646Z,118.13
2018-06-02T04:02:23.593Z,118.13
2018-06-02T04:03:23.528Z,123.75
2018-06-02T04:04:23.471Z,123.75
2018-06-02T04:05:23.415Z,129.38
2018-06-02T04:06:23.353Z,135.00
2018-06-02T04:07:23.300Z,135.00
2018-06-02T04:08:23.240Z,135.00
2018-06-02T04:09:23.184Z,140.63
2018-06-02T04:10:23.125Z,140.63
2018-06-02T04:11:23.068Z,140.63
2018-06-02T04:12:23.010Z,146.25
2018-06-02T04:13:22.953Z,146.25
2018-06-02T04:14:22.894Z,151.88
2018-06-02T04:15:22.839Z,157.50
2018-06-02T04:16:22.780Z,157.50
2018-06-02T04:17:22.721Z,163.13
2018-06-02T04:18:22.664Z,168.75
2018-06-02T04:19:22.612Z,168.75
2018-06-02T04:20:22.549Z,174.38
2018-06-02T04:21:22.493Z,174.38
2018-06-02T04:22:22.435Z,174.38
2018-06-02T04:23:22.378Z,174.38
2018-06-02T04:24:22.319Z,174.38
2018-06-02T04:25:22.276Z,180.00
2018-06-02T04:26:22.205Z,180.00
2018-06-02T04:27:22.148Z,185.63
2018-06-02T04:28:22.089Z,196.88
2018-06-02T04:29:22.033Z,202.50
2018-06-02T04:30:21.972Z,208.13
2018-06-02T04:31:21.911Z,208.13
2018-06-02T04:32:21.856Z,213.75
2018-06-02T04:33:21.805Z,213.75
2018-06-02T04:34:21.744Z,213.75
2018-06-02T04:35:21.682Z,219.38
2018-06-02T04:36:21.632Z,219.38
2018-06-02T04:37:21.567Z,225.00
2018-06-02T04:38:21.510Z,230.63
2018-06-02T04:39:21.455Z,230.63
2018-06-02T04:40:21.395Z,236.25
2018-06-02T04:41:21.343Z,236.25
2018-06-02T04:42:21.286Z,236.25
2018-06-02T04:43:21.225Z,236.25
2018-06-02T04:44:21.163Z,241.88
2018-06-02T04:45:21.106Z,241.88
2018-06-02T04:46:21.048Z,241.88
2018-06-02T04:47:20.995Z,247.50
2018-06-02T04:48:20.940Z,253.13
2018-06-02T04:49:20.874Z,258.75
2018-06-02T04:50:20.818Z,264.38
2018-06-02T04:51:20.764Z,275.63
2018-06-02T04:52:20.704Z,281.25
2018-06-02T04:53:20.645Z,292.50
2018-06-02T04:54:20.594Z,292.50
2018-06-02T04:55:20.531Z,298.13
2018-06-02T04:56:20.473Z,298.13
2018-06-02T04:57:20.414Z,298.13
2018-06-02T04:58:20.355Z,292.50
2018-06-02T04:59:20.302Z,292.50
2018-06-02T05:00:20.244Z,292.50
2018-06-02T05:01:20.191Z,292.50
2018-06-02T05:02:20.143Z,292.50
2018-06-02T05:03:20.116Z,292.50
2018-06-02T05:04:20.014Z,292.50
2018-06-02T05:05:19.958Z,292.50
2018-06-02T05:06:19.898Z,292.50
2018-06-02T05:07:19.839Z,292.50
2018-06-02T05:08:19.783Z,292.50
2018-06-02T05:09:19.725Z,298.13
2018-06-02T05:10:19.669Z,298.13
2018-06-02T05:11:19.612Z,292.50
2018-06-02T05:12:19.558Z,292.50
2018-06-02T05:13:19.497Z,286.88
2018-06-02T05:14:19.443Z,286.88
2018-06-02T05:15:19.381Z,281.25
2018-06-02T05:16:19.322Z,275.63
2018-06-02T05:17:19.263Z,270.00
2018-06-02T05:18:19.208Z,264.38
2018-06-02T05:19:19.152Z,264.38
2018-06-02T05:20:19.096Z,258.75
2018-06-02T05:21:19.035Z,258.75
2018-06-02T05:22:18.978Z,258.75
2018-06-02T05:23:18.926Z,258.75
2018-06-02T05:24:18.869Z,264.38
2018-06-02T05:25:18.812Z,264.38
2018-06-02T05:26:18.754Z,264.38
2018-06-02T05:27:18.687Z,270.00
2018-06-02T05:28:18.632Z,270.00
2018-06-02T05:29:18.579Z,275.63
2018-06-02T05:30:18.517Z,281.25
2018-06-02T05:31:18.464Z,286.88
2018-06-02T05:32:18.411Z,298.13
2018-06-02T05:33:18.346Z,303.75
2018-06-02T05:34:18.289Z,309.38
2018-06-02T05:35:18.271Z,315.00
2018-06-02T05:36:18.170Z,320.63
2018-06-02T05:37:18.116Z,326.25
2018-06-02T05:38:18.057Z,331.88
2018-06-02T05:39:17.999Z,337.50
2018-06-02T05:40:17.944Z,343.13
2018-06-02T05:41:17.883Z,354.38
2018-06-02T05:42:17.827Z,360.00
2018-06-02T05:43:17.773Z,371.25
2018-06-02T05:44:17.712Z,376.88
2018-06-02T05:45:17.655Z,388.13
2018-06-02T05:46:17.604Z,388.13
2018-06-02T05:47:17.540Z,393.75
2018-06-02T05:48:17.481Z,388.13
2018-06-02T05:49:17.422Z,382.50
2018-06-02T05:50:17.368Z,382.50
2018-06-02T05:51:17.311Z,376.88
2018-06-02T05:52:17.252Z,376.88
2018-06-02T05:53:17.196Z,376.88
2018-06-02T05:54:17.137Z,382.50
2018-06-02T05:55:17.083Z,388.13
2018-06-02T05:56:17.023Z,416.25
2018-06-02T05:57:16.973Z,433.13
2018-06-02T05:58:16.910Z,405.00
2018-06-02T05:59:16.852Z,371.25
2018-06-02T06:00:16.794Z,354.38
2018-06-02T06:01:16.738Z,348.75
2018-06-02T06:02:16.678Z,343.13
2018-06-02T06:03:16.624Z,343.13
2018-06-02T06:04:16.567Z,343.13
2018-06-02T06:05:16.510Z,343.13
2018-06-02T06:06:16.453Z,343.13
2018-06-02T06:07:16.397Z,343.13
2018-06-02T06:08:16.337Z,348.75
2018-06-02T06:09:16.284Z,343.13
2018-06-02T06:10:16.224Z,337.50
2018-06-02T06:11:16.166Z,331.88
2018-06-02T06:12:16.112Z,331.88
2018-06-02T06:13:16.049Z,331.88
2018-06-02T06:14:16.001Z,331.88
2018-06-02T06:15:15.941Z,337.50
2018-06-02T06:16:15.882Z,343.13
2018-06-02T06:17:15.825Z,348.75
2018-06-02T06:18:15.769Z,354.38
2018-06-02T06:19:15.711Z,360.00
2018-06-02T06:20:15.654Z,360.00
2018-06-02T06:21:15.593Z,360.00
2018-06-02T06:22:15.539Z,354.38
2018-06-02T06:23:15.484Z,348.75
2018-06-02T06:24:15.427Z,343.13
2018-06-02T06:25:15.372Z,343.13
2018-06-02T06:26:15.310Z,348.75
2018-06-02T06:27:15.255Z,354.38
2018-06-02T06:28:15.198Z,360.00
2018-06-02T06:29:15.142Z,371.25
2018-06-02T06:30:15.084Z,371.25
2018-06-02T06:31:15.027Z,376.88
2018-06-02T06:32:14.967Z,371.25
2018-06-02T06:33:14.935Z,371.25
2018-06-02T06:34:14.854Z,365.63
2018-06-02T06:35:14.801Z,365.63
2018-06-02T06:36:14.742Z,365.63
2018-06-02T06:37:14.684Z,365.63
2018-06-02T06:38:14.626Z,376.88
2018-06-02T06:39:14.568Z,388.13
2018-06-02T06:40:14.520Z,393.75
2018-06-02T06:41:14.461Z,399.38
2018-06-02T06:42:14.399Z,388.13
2018-06-02T06:43:14.359Z,388.13
2018-06-02T06:44:14.301Z,388.13
2018-06-02T06:45:14.244Z,388.13
2018-06-02T06:46:14.218Z,393.75
2018-06-02T06:47:14.115Z,393.75
2018-06-02T06:48:14.062Z,393.75
2018-06-02T06:49:14.003Z,393.75
2018-06-02T06:50:13.943Z,399.38
2018-06-02T06:51:13.885Z,405.00
2018-06-02T06:52:13.836Z,410.63
2018-06-02T06:53:13.770Z,410.63
2018-06-02T06:54:13.713Z,410.63
2018-06-02T06:55:13.660Z,405.00
2018-06-02T06:56:13.602Z,405.00
2018-06-02T06:57:13.543Z,410.63
2018-06-02T06:58:13.487Z,416.25
2018-06-02T06:59:13.437Z,421.88
2018-06-02T07:00:13.375Z,427.50
2018-06-02T07:01:13.319Z,438.75
2018-06-02T07:02:13.262Z,444.38
2018-06-02T07:03:13.204Z,450.00
2018-06-02T07:04:13.149Z,450.00
2018-06-02T07:05:13.090Z,444.38
2018-06-02T07:06:13.038Z,438.75
2018-06-02T07:07:12.979Z,438.75
2018-06-02T07:08:12.924Z,444.38
2018-06-02T07:09:12.864Z,444.38
2018-06-02T07:10:12.814Z,450.00
2018-06-02T07:11:12.779Z,450.00
2018-06-02T07:12:12.714Z,450.00
2018-06-02T07:13:12.639Z,444.38
2018-06-02T07:14:12.591Z,438.75
2018-06-02T07:15:12.526Z,433.13
2018-06-02T07:16:12.474Z,427.50
2018-06-02T07:17:12.427Z,421.88
2018-06-02T07:18:12.359Z,416.25
2018-06-02T07:19:12.311Z,416.25
2018-06-02T07:20:12.289Z,416.25
2018-06-02T07:21:12.196Z,427.50
2018-06-02T07:22:12.134Z,433.13
2018-06-02T07:23:12.077Z,427.50
2018-06-02T07:24:12.037Z,427.50
2018-06-02T07:25:11.957Z,433.13
2018-06-02T07:26:11.923Z,433.13
2018-06-02T07:27:12.373Z,438.75
2018-06-02T07:28:11.793Z,450.00
2018-06-02T07:29:11.757Z,450.00
2018-06-02T07:30:11.688Z,433.13
2018-06-02T07:31:11.630Z,438.75
2018-06-02T07:32:11.571Z,450.00
2018-06-02T07:33:11.524Z,478.13
2018-06-02T07:34:11.459Z,495.00
2018-06-02T07:35:11.410Z,517.50
2018-06-02T07:36:11.409Z,528.75
2018-06-02T07:37:11.336Z,534.38
2018-06-02T07:38:11.689Z,534.38
2018-06-02T07:39:11.176Z,607.50
2018-06-02T07:40:11.149Z,680.63
2018-06-02T07:41:11.066Z,697.50
2018-06-02T07:42:11.019Z,725.63
2018-06-02T07:43:10.951Z,725.63
2018-06-02T07:44:10.896Z,810.00
2018-06-02T07:45:10.845Z,731.25
2018-06-02T07:46:10.787Z,720.00
2018-06-02T07:47:10.730Z,770.63
2018-06-02T07:48:10.677Z,888.75
2018-06-02T07:49:10.716Z,742.50
2018-06-02T07:50:10.565Z,725.63
2018-06-02T07:51:19.559Z,686.25
2018-06-02T07:53:05.924Z,731.25
2018-06-02T07:54:05.732Z,703.13
2018-06-02T07:55:59.069Z,708.75
2018-06-02T07:56:58.965Z,748.13
2018-06-02T07:57:58.929Z,838.13
2018-06-02T07:58:58.855Z,832.50
2018-06-02T08:00:01.598Z,838.13
2018-06-02T08:00:58.760Z,877.50
2018-06-02T08:01:58.982Z,973.13
2018-06-02T08:02:58.987Z,911.25
2018-06-02T08:04:00.835Z,793.13
2018-06-02T08:04:58.548Z,821.25
2018-06-02T08:05:58.476Z,793.13
2018-06-02T08:06:58.420Z,720.00
2018-06-02T08:07:58.365Z,663.75
2018-06-02T08:08:58.314Z,613.13
2018-06-02T08:09:58.253Z,663.75
2018-06-02T08:10:58.205Z,691.88
2018-06-02T08:11:58.158Z,748.13
2018-06-02T08:12:58.093Z,781.88
2018-06-02T08:13:58.036Z,793.13
2018-06-02T08:14:57.983Z,900.00
2018-06-02T08:15:57.932Z,973.13
2018-06-02T08:16:57.876Z,900.00
2018-06-02T08:17:57.825Z,832.50
2018-06-02T08:18:57.768Z,888.75
2018-06-02T08:19:57.711Z,922.50
2018-06-02T08:20:57.669Z,961.88
2018-06-02T08:21:57.603Z,1091.25
2018-06-02T08:22:57.545Z,1057.50
2018-06-02T08:23:57.510Z,1119.38
2018-06-02T08:24:57.442Z,1040.63
2018-06-02T08:25:57.388Z,961.88
2018-06-02T08:26:57.331Z,894.38
2018-06-02T08:27:57.286Z,860.63
2018-06-02T08:28:57.232Z,810.00
2018-06-02T08:29:57.171Z,826.88
2018-06-02T08:30:57.118Z,849.38
2018-06-02T08:31:57.062Z,753.75
2018-06-02T08:32:57.027Z,720.00
2018-06-02T08:33:56.965Z,753.75
2018-06-02T08:34:56.898Z,781.88
2018-06-02T08:35:56.848Z,753.75
2018-06-02T08:36:56.795Z,787.50
2018-06-02T08:37:56.738Z,860.63
2018-06-02T08:38:56.713Z,961.88
2018-06-02T08:39:56.640Z,1057.50
2018-06-02T08:40:56.581Z,1051.88
2018-06-02T08:41:56.548Z,956.25
2018-06-02T08:42:56.467Z,950.63
2018-06-02T08:43:56.430Z,1023.75
2018-06-02T08:44:56.355Z,1006.88
2018-06-02T08:45:56.326Z,1046.25
2018-06-02T08:46:56.250Z,1113.75
2018-06-02T08:47:56.194Z,1198.13
2018-06-02T08:48:56.147Z,1181.25
2018-06-02T08:49:56.086Z,1108.13
2018-06-02T08:50:56.037Z,1023.75
2018-06-02T08:51:55.980Z,1035.00
2018-06-02T08:52:55.921Z,1096.88
2018-06-02T08:53:55.871Z,1130.63
2018-06-02T08:54:55.816Z,1164.38
2018-06-02T08:55:55.761Z,1153.13
2018-06-02T08:56:55.709Z,1220.63
2018-06-02T08:57:55.658Z,1215.00
2018-06-02T08:58:55.601Z,1153.13
2018-06-02T08:59:55.542Z,1175.63
2018-06-02T09:00:55.493Z,995.63
2018-06-02T09:01:55.439Z,1051.88
2018-06-02T09:02:55.386Z,1080.00
2018-06-02T09:03:55.332Z,1057.50
2018-06-02T09:04:56.124Z,961.88
2018-06-02T09:05:55.231Z,928.13
2018-06-02T09:06:55.171Z,928.13
2018-06-02T09:07:55.118Z,973.13
2018-06-02T09:08:55.066Z,1029.38
2018-06-02T09:09:55.020Z,984.38
2018-06-02T09:10:54.979Z,961.88
2018-06-02T09:11:54.905Z,961.88
2018-06-02T09:12:54.851Z,1001.25
2018-06-02T09:13:54.794Z,1012.50
2018-06-02T09:14:54.745Z,933.75
2018-06-02T09:15:54.686Z,1046.25
2018-06-02T09:16:54.631Z,1046.25
2018-06-02T09:17:54.576Z,1102.50
2018-06-02T09:18:54.527Z,1186.88
2018-06-02T09:19:54.476Z,1293.75
2018-06-02T09:20:54.420Z,1310.63
2018-06-02T09:21:54.363Z,1282.50
2018-06-02T09:22:54.308Z,1361.25
2018-06-02T09:23:54.257Z,1327.50
2018-06-02T09:24:54.209Z,1361.25
2018-06-02T09:25:54.167Z,1372.50
2018-06-02T09:26:54.092Z,1254.38
2018-06-02T09:27:54.231Z,1141.88
2018-06-02T09:28:54.010Z,1181.25
2018-06-02T09:29:53.933Z,1243.13
2018-06-02T09:30:53.949Z,1198.13
2018-06-02T09:31:53.827Z,1186.88
2018-06-02T09:32:53.779Z,1192.50
2018-06-02T09:33:53.722Z,1276.88
2018-06-02T09:34:53.669Z,1299.38
2018-06-02T09:35:53.616Z,1226.25
2018-06-02T09:36:53.564Z,1170.00
2018-06-02T09:37:53.585Z,1141.88
2018-06-02T09:38:53.454Z,1074.38
2018-06-02T09:39:53.499Z,1035.00
2018-06-02T09:40:53.381Z,1006.88
2018-06-02T09:41:53.297Z,990.00
2018-06-02T09:42:53.254Z,978.75
2018-06-02T09:43:53.205Z,973.13
2018-06-02T09:44:53.142Z,973.13
2018-06-02T09:45:53.081Z,973.13
2018-06-02T09:46:53.034Z,978.75
2018-06-02T09:47:52.981Z,1012.50
2018-06-02T09:48:52.989Z,1012.50
2018-06-02T09:49:52.870Z,1068.75
2018-06-02T09:50:52.855Z,1158.75
2018-06-02T09:51:52.767Z,1096.88
2018-06-02T09:52:52.714Z,1085.63
2018-06-02T09:53:52.659Z,1057.50
2018-06-02T09:54:52.608Z,1035.00
2018-06-02T09:55:52.595Z,1018.13
2018-06-02T09:56:52.799Z,1018.13
2018-06-02T09:57:52.457Z,1012.50
2018-06-02T09:58:52.398Z,1023.75
2018-06-02T09:59:52.424Z,1006.88
2018-06-02T10:00:52.285Z,1023.75
2018-06-02T10:01:52.254Z,1040.63
2018-06-02T10:02:52.177Z,1001.25
2018-06-02T10:03:52.124Z,978.75
2018-06-02T10:04:52.073Z,984.38
2018-06-02T10:05:52.017Z,1023.75
2018-06-02T10:06:51.961Z,1057.50
2018-06-02T10:07:51.908Z,1102.50
2018-06-02T10:08:51.857Z,1141.88
2018-06-02T10:09:51.801Z,1125.00
2018-06-02T10:10:51.748Z,1164.38
2018-06-02T10:11:51.704Z,1192.50
2018-06-02T10:12:51.645Z,1327.50
2018-06-02T10:13:51.593Z,1288.13
2018-06-02T10:14:51.539Z,1108.13
2018-06-02T10:15:51.485Z,995.63
2018-06-02T10:16:51.431Z,1035.00
2018-06-02T10:17:51.377Z,1029.38
2018-06-02T10:18:51.330Z,1029.38
2018-06-02T10:19:51.275Z,1018.13
2018-06-02T10:20:51.221Z,1035.00
2018-06-02T10:21:51.180Z,1046.25
2018-06-02T10:22:51.112Z,1068.75
2018-06-02T10:23:51.058Z,1063.13
2018-06-02T10:24:51.009Z,1068.75
2018-06-02T10:25:50.956Z,1085.63
2018-06-02T10:26:50.902Z,1096.88
2018-06-02T10:27:50.853Z,1147.50
2018-06-02T10:28:50.796Z,1125.00
2018-06-02T10:29:50.739Z,1119.38
2018-06-02T10:30:50.686Z,1170.00
2018-06-02T10:31:50.637Z,1231.88
2018-06-02T10:32:50.594Z,1327.50
2018-06-02T10:33:50.530Z,1479.38
2018-06-02T10:34:50.476Z,1558.13
2018-06-02T10:35:50.422Z,1485.00
2018-06-02T10:36:50.375Z,1485.00
2018-06-02T10:37:50.327Z,1456.88
2018-06-02T10:38:50.275Z,1462.50
2018-06-02T10:39:50.221Z,1485.00
2018-06-02T10:40:50.161Z,1541.25
2018-06-02T10:41:50.106Z,1569.38
2018-06-02T10:42:50.059Z,1513.13
2018-06-02T10:43:50.002Z,1518.75
2018-06-02T10:44:49.955Z,1395.00
2018-06-02T10:45:49.917Z,1254.38
2018-06-02T10:46:49.847Z,1203.75
2018-06-02T10:47:49.797Z,1226.25
2018-06-02T10:48:49.741Z,1215.00
2018-06-02T10:49:49.690Z,1119.38
2018-06-02T10:50:49.647Z,1006.88
2018-06-02T10:51:49.590Z,1063.13
2018-06-02T10:52:49.527Z,1096.88
2018-06-02T10:53:49.480Z,950.63
2018-06-02T10:54:49.430Z,978.75
2018-06-02T10:55:49.376Z,1018.13
2018-06-02T10:56:49.323Z,1018.13
2018-06-02T10:57:49.276Z,1046.25
2018-06-02T10:58:49.223Z,1119.38
2018-06-02T10:59:49.168Z,1271.25
2018-06-02T11:00:49.112Z,1440.00
2018-06-02T11:01:49.129Z,1642.50
2018-06-02T11:02:49.004Z,1642.50
2018-06-02T11:03:48.961Z,1693.13
2018-06-02T11:04:48.907Z,1721.25
2018-06-02T11:05:48.851Z,1693.13
2018-06-02T11:06:48.795Z,1676.25
2018-06-02T11:07:48.747Z,1681.88
2018-06-02T11:08:48.701Z,1715.63
2018-06-02T11:09:48.652Z,1738.13
2018-06-02T11:10:48.592Z,1771.88
2018-06-02T11:11:48.542Z,1771.88
2018-06-02T11:12:48.490Z,1822.50
2018-06-02T11:13:48.440Z,1890.00
2018-06-02T11:14:48.386Z,1957.50
2018-06-02T11:15:48.336Z,2030.63
2018-06-02T11:16:48.292Z,2103.75
2018-06-02T11:17:48.246Z,2188.13
2018-06-02T11:18:48.249Z,2092.50
2018-06-02T11:19:48.146Z,1721.25
2018-06-02T11:20:48.086Z,1383.75
2018-06-02T11:21:48.040Z,1215.00
2018-06-02T11:22:47.994Z,1282.50
2018-06-02T11:23:47.944Z,1350.00
2018-06-02T11:24:47.885Z,1541.25
2018-06-02T11:25:47.890Z,2109.38
2018-06-02T11:26:47.785Z,3341.25
2018-06-02T11:27:47.736Z,3189.38
2018-06-02T11:28:47.690Z,3442.50
2018-06-02T11:29:47.635Z,3313.13
2018-06-02T11:30:47.587Z,3375.00
2018-06-02T11:31:47.538Z,2835.00
2018-06-02T11:32:47.488Z,2542.50
2018-06-02T11:33:47.448Z,1951.88
2018-06-02T11:34:47.391Z,2244.38
2018-06-02T11:35:47.357Z,3493.13
2018-06-02T11:36:47.298Z,3583.13
2018-06-02T11:37:47.271Z,3178.13
2018-06-02T11:38:47.191Z,3009.38
2018-06-02T11:39:47.147Z,3881.25
2018-06-02T11:40:47.100Z,3161.25
2018-06-02T11:41:47.052Z,3982.50
2018-06-02T11:42:47.007Z,3504.38
2018-06-02T11:43:46.953Z,3757.50
2018-06-02T11:44:46.907Z,4224.38
2018-06-02T11:45:46.859Z,4286.25
2018-06-02T11:46:46.819Z,4168.13
2018-06-02T11:47:46.765Z,4066.88
2018-06-02T11:48:46.731Z,3825.00
2018-06-02T11:49:46.674Z,3414.38
2018-06-02T11:50:46.630Z,4308.75
2018-06-02T11:51:46.583Z,4325.63
2018-06-02T11:52:46.531Z,4348.13
2018-06-02T11:53:46.493Z,3543.75
2018-06-02T11:54:46.450Z,2857.50
2018-06-02T11:55:46.406Z,2694.38
2018-06-02T11:56:46.357Z,2840.63
2018-06-02T11:57:46.305Z,3510.00
2018-06-02T11:58:46.269Z,3363.75
2018-06-02T11:59:46.251Z,3538.13
2018-06-02T12:00:46.204Z,4438.13
2018-06-02T12:01:46.130Z,4561.88
2018-06-02T12:02:46.093Z,4303.13
2018-06-02T12:03:46.042Z,2913.75
2018-06-02T12:04:46.007Z,3223.13
2018-06-02T12:05:45.951Z,1473.75
2018-06-02T12:06:45.902Z,1620.00
2018-06-02T12:07:45.860Z,1845.00
2018-06-02T12:08:45.816Z,1411.88
2018-06-02T12:09:45.776Z,2075.63
2018-06-02T12:10:45.720Z,1513.13
2018-06-02T12:11:45.685Z,1743.75
2018-06-02T12:12:45.633Z,3982.50
2018-06-02T12:13:45.584Z,2064.38
2018-06-02T12:14:45.542Z,2441.25
2018-06-02T12:15:45.489Z,1861.88
2018-06-02T12:16:45.442Z,1558.13
2018-06-02T12:17:45.391Z,1518.75
2018-06-02T12:18:45.343Z,1333.13
2018-06-02T12:19:45.294Z,1451.25
2018-06-02T12:20:45.254Z,1535.63
2018-06-02T12:21:45.206Z,1243.13
2018-06-02T12:22:45.155Z,1170.00
2018-06-02T12:23:45.110Z,1350.00
2018-06-02T12:24:45.096Z,1445.63
2018-06-02T12:25:45.007Z,1541.25
2018-06-02T12:26:44.967Z,1597.50
2018-06-02T12:27:44.916Z,1687.50
2018-06-02T12:28:44.864Z,1563.75
2018-06-02T12:29:44.815Z,1614.38
2018-06-02T12:30:44.766Z,1693.13
2018-06-02T12:31:44.717Z,1828.13
2018-06-02T12:32:44.670Z,1721.25
2018-06-02T12:33:44.619Z,1608.75
2018-06-02T12:34:44.593Z,1440.00
2018-06-02T12:35:44.520Z,1490.63